Terminal Aerodrome Forecast
Issued by NWS

Current Version | Previous Version | Text Only | Print | Product List | Glossary On
Versions: 1 2 3 4 5 6 7 8 9 10 11 12
000
FTUS42 KGSP 032332
TAFGMU
TAF
KGMU 032332Z 0400/0424 36003KT P6SM FEW070
     FM040600 36003KT P6SM SCT250
     FM041400 05005KT P6SM SCT060 PROB30 0418/0424 4SM TSRA
      BKN040CB=

USA.gov is the U.S. government's official web portal to all federal, state and local government web resources and services.